XSN16L GCRR-LEIB
Flight info
| Callsign | XSN16L |
|---|---|
| Flight time | 2h 12m |
| Altitude | 40000 |
| Route | KORAL UN871 SONSO DCT NIRAL UN871 OSDAM UM985 BARPA M985 PIMOS M445 RIXUR N851 RUXET |
| Aircraft | LJ35/M-SGHRWXY/SB1 |
Departure
| Time | 2026-05-05 08:39 |
|---|---|
| Airport | César Manrique-Lanzarote Airport (GCRR) |
Arrival
| Time | 2026-05-05 10:51 |
|---|---|
| Airport | Ibiza Airport (LEIB) |
| Time | Latitude | Longitude | Altitude | Speed | Heading |
|---|---|---|---|---|---|
| 2026-05-05 08:25 | 28.95519 | -13.60425 | 44 ft | 0 kts | 297° |
| 2026-05-05 08:33 | 28.95520 | -13.60426 | 44 ft | 0 kts | 297° |
| 2026-05-05 08:34 | 28.95529 | -13.60429 | 44 ft | 3 kts | 23° |
| 2026-05-05 08:34 | 28.95512 | -13.60405 | 44 ft | 7 kts | 176° |
| 2026-05-05 08:34 | 28.95462 | -13.60369 | 44 ft | 10 kts | 148° |
| 2026-05-05 08:34 | 28.95388 | -13.60392 | 44 ft | 14 kts | 209° |
| 2026-05-05 08:35 | 28.95288 | -13.60448 | 44 ft | 18 kts | 205° |
| 2026-05-05 08:35 | 28.95164 | -13.60516 | 44 ft | 19 kts | 183° |
| 2026-05-05 08:35 | 28.95084 | -13.60430 | 44 ft | 17 kts | 166° |
| 2026-05-05 08:35 | 28.94965 | -13.60487 | 44 ft | 21 kts | 206° |
| 2026-05-05 08:36 | 28.94823 | -13.60571 | 44 ft | 25 kts | 207° |
| 2026-05-05 08:36 | 28.94658 | -13.60664 | 42 ft | 29 kts | 207° |
| 2026-05-05 08:36 | 28.94453 | -13.60781 | 27 ft | 37 kts | 206° |
| 2026-05-05 08:36 | 28.94213 | -13.60919 | 23 ft | 40 kts | 207° |
| 2026-05-05 08:37 | 28.93957 | -13.61071 | 19 ft | 42 kts | 206° |
| 2026-05-05 08:37 | 28.93706 | -13.61208 | 18 ft | 29 kts | 199° |
| 2026-05-05 08:37 | 28.93623 | -13.61125 | 18 ft | 18 kts | 106° |
| 2026-05-05 08:37 | 28.93640 | -13.61045 | 19 ft | 0 kts | 25° |
| 2026-05-05 08:38 | 28.93767 | -13.60973 | 19 ft | 60 kts | 27° |
| 2026-05-05 08:38 | 28.94381 | -13.60618 | 39 ft | 135 kts | 27° |
| 2026-05-05 08:38 | 28.95341 | -13.60072 | 437 ft | 173 kts | 32° |
| 2026-05-05 08:39 | 28.96431 | -13.59161 | 897 ft | 216 kts | 38° |
| 2026-05-05 08:39 | 28.97701 | -13.58060 | 1730 ft | 227 kts | 38° |
| 2026-05-05 08:39 | 28.98999 | -13.56988 | 2936 ft | 236 kts | 37° |
| 2026-05-05 08:39 | 29.00346 | -13.55869 | 3954 ft | 244 kts | 37° |
| 2026-05-05 08:40 | 29.01568 | -13.54488 | 4792 ft | 250 kts | 47° |
| 2026-05-05 08:40 | 29.02679 | -13.52863 | 5330 ft | 263 kts | 51° |
| 2026-05-05 08:40 | 29.03803 | -13.51186 | 6303 ft | 272 kts | 50° |
| 2026-05-05 08:40 | 29.05025 | -13.49495 | 7194 ft | 277 kts | 49° |
| 2026-05-05 08:41 | 29.06273 | -13.47780 | 8094 ft | 284 kts | 49° |
| 2026-05-05 08:41 | 29.07516 | -13.46026 | 8936 ft | 291 kts | 49° |
| 2026-05-05 08:41 | 29.08802 | -13.44204 | 9834 ft | 297 kts | 48° |
| 2026-05-05 08:41 | 29.10335 | -13.42611 | 10600 ft | 300 kts | 27° |
| 2026-05-05 08:42 | 29.12215 | -13.41554 | 11402 ft | 303 kts | 18° |
| 2026-05-05 08:42 | 29.14181 | -13.40610 | 12215 ft | 309 kts | 18° |
| 2026-05-05 08:42 | 29.16155 | -13.39568 | 13060 ft | 315 kts | 20° |
| 2026-05-05 08:42 | 29.18153 | -13.38470 | 13884 ft | 321 kts | 20° |
| 2026-05-05 08:43 | 29.20191 | -13.37377 | 14621 ft | 326 kts | 19° |
| 2026-05-05 08:43 | 29.22223 | -13.36139 | 15331 ft | 338 kts | 32° |
| 2026-05-05 08:43 | 29.23890 | -13.34182 | 16055 ft | 349 kts | 49° |
| 2026-05-05 08:43 | 29.25309 | -13.31899 | 16778 ft | 355 kts | 54° |
| 2026-05-05 08:44 | 29.26689 | -13.29525 | 17506 ft | 361 kts | 53° |
| 2026-05-05 08:44 | 29.28189 | -13.27193 | 18235 ft | 366 kts | 50° |
| 2026-05-05 08:44 | 29.29774 | -13.24887 | 18858 ft | 372 kts | 50° |
| 2026-05-05 08:44 | 29.31349 | -13.22503 | 19487 ft | 377 kts | 52° |
| 2026-05-05 08:45 | 29.32907 | -13.20056 | 20102 ft | 383 kts | 52° |
| 2026-05-05 08:45 | 29.34500 | -13.17588 | 20728 ft | 388 kts | 51° |
| 2026-05-05 08:45 | 29.36139 | -13.15097 | 21351 ft | 394 kts | 51° |
| 2026-05-05 08:45 | 29.37794 | -13.12569 | 21960 ft | 399 kts | 51° |
| 2026-05-05 08:46 | 29.39437 | -13.10025 | 22593 ft | 404 kts | 52° |
| 2026-05-05 08:46 | 29.41124 | -13.07417 | 23226 ft | 409 kts | 51° |
| 2026-05-05 08:46 | 29.42838 | -13.04787 | 23809 ft | 414 kts | 51° |
| 2026-05-05 08:46 | 29.44571 | -13.02125 | 24366 ft | 418 kts | 51° |
| 2026-05-05 08:47 | 29.46312 | -12.99436 | 24928 ft | 421 kts | 51° |
| 2026-05-05 08:47 | 29.48063 | -12.96731 | 25510 ft | 425 kts | 51° |
| 2026-05-05 08:47 | 29.49820 | -12.94022 | 26040 ft | 429 kts | 51° |
| 2026-05-05 08:47 | 29.51605 | -12.91264 | 26612 ft | 432 kts | 51° |
| 2026-05-05 08:48 | 29.53400 | -12.88484 | 27179 ft | 435 kts | 51° |
| 2026-05-05 08:48 | 29.55211 | -12.85683 | 27751 ft | 438 kts | 51° |
| 2026-05-05 08:48 | 29.57035 | -12.82864 | 28317 ft | 442 kts | 51° |
| 2026-05-05 08:48 | 29.58876 | -12.80013 | 28887 ft | 445 kts | 51° |
| 2026-05-05 08:49 | 29.60720 | -12.77150 | 29444 ft | 448 kts | 51° |
| 2026-05-05 08:49 | 29.62580 | -12.74266 | 30070 ft | 449 kts | 50° |
| 2026-05-05 08:49 | 29.64445 | -12.71370 | 30518 ft | 453 kts | 50° |
| 2026-05-05 08:49 | 29.66335 | -12.68432 | 30935 ft | 458 kts | 50° |
| 2026-05-05 08:50 | 29.68242 | -12.65468 | 31349 ft | 463 kts | 50° |
| 2026-05-05 08:50 | 29.70162 | -12.62484 | 31751 ft | 467 kts | 50° |
| 2026-05-05 08:50 | 29.72104 | -12.59464 | 32152 ft | 471 kts | 49° |
| 2026-05-05 08:50 | 29.74018 | -12.56379 | 32532 ft | 477 kts | 52° |
| 2026-05-05 08:51 | 29.75250 | -12.54277 | 32792 ft | 479 kts | 52° |
| 2026-05-05 08:51 | 29.77129 | -12.51095 | 33170 ft | 483 kts | 52° |
| 2026-05-05 08:51 | 29.79041 | -12.47888 | 33541 ft | 487 kts | 52° |
| 2026-05-05 08:51 | 29.80962 | -12.44649 | 33944 ft | 492 kts | 52° |
| 2026-05-05 08:52 | 29.82893 | -12.41365 | 34223 ft | 497 kts | 52° |
| 2026-05-05 08:52 | 29.84837 | -12.38064 | 34579 ft | 498 kts | 51° |
| 2026-05-05 08:52 | 29.86793 | -12.34752 | 34896 ft | 501 kts | 51° |
| 2026-05-05 08:52 | 29.88766 | -12.31417 | 35201 ft | 504 kts | 51° |
| 2026-05-05 08:53 | 29.90743 | -12.28059 | 35503 ft | 507 kts | 52° |
| 2026-05-05 08:53 | 29.92700 | -12.24722 | 35790 ft | 510 kts | 52° |
| 2026-05-05 08:53 | 29.94696 | -12.21323 | 36076 ft | 513 kts | 52° |
| 2026-05-05 08:53 | 29.96703 | -12.17911 | 36350 ft | 515 kts | 52° |
| 2026-05-05 08:54 | 29.98717 | -12.14479 | 36617 ft | 518 kts | 52° |
| 2026-05-05 08:54 | 30.00775 | -12.11066 | 36875 ft | 518 kts | 47° |
| 2026-05-05 08:54 | 30.03182 | -12.08005 | 37127 ft | 513 kts | 37° |
| 2026-05-05 08:54 | 30.05761 | -12.05140 | 37363 ft | 515 kts | 37° |
| 2026-05-05 08:55 | 30.08342 | -12.02257 | 37633 ft | 517 kts | 37° |
| 2026-05-05 08:55 | 30.10927 | -11.99354 | 37880 ft | 519 kts | 37° |
| 2026-05-05 08:55 | 30.13525 | -11.96443 | 38104 ft | 521 kts | 37° |
| 2026-05-05 08:55 | 30.16135 | -11.93524 | 38323 ft | 523 kts | 37° |
| 2026-05-05 08:56 | 30.18752 | -11.90590 | 38532 ft | 525 kts | 37° |
| 2026-05-05 08:56 | 30.21378 | -11.87640 | 38720 ft | 527 kts | 37° |
| 2026-05-05 08:56 | 30.24010 | -11.84680 | 38890 ft | 529 kts | 38° |
| 2026-05-05 08:56 | 30.26652 | -11.81710 | 39064 ft | 530 kts | 38° |
| 2026-05-05 08:57 | 30.29301 | -11.78733 | 39226 ft | 530 kts | 38° |
| 2026-05-05 08:57 | 30.31914 | -11.75793 | 39376 ft | 531 kts | 38° |
| 2026-05-05 08:57 | 30.34561 | -11.72809 | 39509 ft | 532 kts | 38° |
| 2026-05-05 08:57 | 30.37221 | -11.69806 | 39635 ft | 532 kts | 38° |
| 2026-05-05 08:58 | 30.39875 | -11.66812 | 39751 ft | 533 kts | 38° |
| 2026-05-05 08:58 | 30.42535 | -11.63811 | 39853 ft | 534 kts | 38° |
| 2026-05-05 08:58 | 30.45192 | -11.60806 | 40010 ft | 533 kts | 38° |
| 2026-05-05 08:59 | 30.50508 | -11.54783 | 40045 ft | 536 kts | 38° |
| 2026-05-05 08:59 | 30.55858 | -11.48724 | 40047 ft | 537 kts | 39° |
| 2026-05-05 09:00 | 30.61203 | -11.42649 | 40051 ft | 538 kts | 39° |
| 2026-05-05 09:00 | 30.66559 | -11.36561 | 40053 ft | 538 kts | 39° |
| 2026-05-05 09:01 | 30.71874 | -11.30507 | 40039 ft | 538 kts | 39° |
| 2026-05-05 09:01 | 30.77206 | -11.24416 | 40059 ft | 535 kts | 39° |
| 2026-05-05 09:02 | 30.82506 | -11.18365 | 40046 ft | 532 kts | 39° |
| 2026-05-05 09:02 | 30.87787 | -11.12314 | 40041 ft | 531 kts | 39° |
| 2026-05-05 09:03 | 30.93013 | -11.06325 | 40041 ft | 530 kts | 39° |
| 2026-05-05 09:03 | 30.98266 | -11.00290 | 40041 ft | 530 kts | 39° |
| 2026-05-05 09:04 | 31.03516 | -10.94251 | 40044 ft | 530 kts | 39° |
| 2026-05-05 09:04 | 31.08756 | -10.88212 | 40066 ft | 528 kts | 39° |
| 2026-05-05 09:05 | 31.13972 | -10.82194 | 40061 ft | 526 kts | 39° |
| 2026-05-05 09:05 | 31.19168 | -10.76184 | 40065 ft | 526 kts | 39° |
| 2026-05-05 09:06 | 31.24364 | -10.70168 | 40058 ft | 525 kts | 39° |
| 2026-05-05 09:06 | 31.29550 | -10.64153 | 40057 ft | 525 kts | 39° |
| 2026-05-05 09:07 | 31.34735 | -10.58129 | 40061 ft | 525 kts | 39° |
| 2026-05-05 09:07 | 31.39913 | -10.52104 | 40063 ft | 524 kts | 39° |
| 2026-05-05 09:08 | 31.45067 | -10.46094 | 40069 ft | 523 kts | 39° |
| 2026-05-05 09:08 | 31.50181 | -10.40124 | 40066 ft | 522 kts | 39° |
| 2026-05-05 09:09 | 31.55324 | -10.34109 | 40065 ft | 522 kts | 39° |
| 2026-05-05 09:09 | 31.60462 | -10.28088 | 40064 ft | 522 kts | 39° |
| 2026-05-05 09:10 | 31.65613 | -10.22045 | 40061 ft | 522 kts | 39° |
| 2026-05-05 09:10 | 31.70752 | -10.16010 | 40067 ft | 523 kts | 40° |
| 2026-05-05 09:11 | 31.75887 | -10.09961 | 40066 ft | 523 kts | 40° |
| 2026-05-05 09:11 | 31.81018 | -10.03913 | 40066 ft | 523 kts | 40° |
| 2026-05-05 09:12 | 31.86147 | -9.97853 | 40066 ft | 523 kts | 40° |
| 2026-05-05 09:12 | 31.91239 | -9.91830 | 40071 ft | 522 kts | 40° |
| 2026-05-05 09:13 | 31.96362 | -9.85758 | 40093 ft | 523 kts | 40° |
| 2026-05-05 09:13 | 32.01484 | -9.79678 | 40064 ft | 522 kts | 40° |
| 2026-05-05 09:14 | 32.06593 | -9.73601 | 40072 ft | 522 kts | 40° |
| 2026-05-05 09:14 | 32.11698 | -9.67511 | 40075 ft | 521 kts | 40° |
| 2026-05-05 09:15 | 32.16803 | -9.61437 | 40074 ft | 521 kts | 40° |
| 2026-05-05 09:15 | 32.21896 | -9.55339 | 40074 ft | 521 kts | 40° |
| 2026-05-05 09:16 | 32.26998 | -9.49239 | 40095 ft | 521 kts | 41° |
| 2026-05-05 09:16 | 32.32042 | -9.43183 | 40074 ft | 519 kts | 41° |
| 2026-05-05 09:17 | 32.37107 | -9.37104 | 40073 ft | 518 kts | 41° |
| 2026-05-05 09:17 | 32.42160 | -9.31020 | 40074 ft | 518 kts | 41° |
| 2026-05-05 09:18 | 32.47216 | -9.24928 | 40073 ft | 518 kts | 41° |
| 2026-05-05 09:18 | 32.52270 | -9.18825 | 40073 ft | 518 kts | 41° |
| 2026-05-05 09:19 | 32.57315 | -9.12724 | 40089 ft | 517 kts | 41° |
| 2026-05-05 09:19 | 32.62291 | -9.06694 | 40082 ft | 514 kts | 41° |
| 2026-05-05 09:20 | 32.67289 | -9.00630 | 40081 ft | 513 kts | 41° |
| 2026-05-05 09:20 | 32.72285 | -8.94557 | 40079 ft | 513 kts | 41° |
| 2026-05-05 09:21 | 32.77269 | -8.88487 | 40080 ft | 513 kts | 41° |
| 2026-05-05 09:21 | 32.82256 | -8.82405 | 40079 ft | 513 kts | 41° |
| 2026-05-05 09:22 | 32.87232 | -8.76323 | 40091 ft | 512 kts | 41° |
| 2026-05-05 09:22 | 32.92153 | -8.70302 | 40087 ft | 510 kts | 41° |
| 2026-05-05 09:23 | 32.97102 | -8.64233 | 40085 ft | 510 kts | 41° |
| 2026-05-05 09:23 | 33.02044 | -8.58165 | 40084 ft | 510 kts | 41° |
| 2026-05-05 09:24 | 33.06986 | -8.52084 | 40083 ft | 510 kts | 41° |
| 2026-05-05 09:24 | 33.11921 | -8.46002 | 40077 ft | 510 kts | 41° |
| 2026-05-05 09:25 | 33.16857 | -8.39908 | 40080 ft | 510 kts | 41° |
| 2026-05-05 09:25 | 33.22256 | -8.34571 | 40093 ft | 500 kts | 26° |
| 2026-05-05 09:26 | 33.28153 | -8.30154 | 40078 ft | 500 kts | 26° |
| 2026-05-05 09:26 | 33.34008 | -8.25731 | 40082 ft | 501 kts | 26° |
| 2026-05-05 09:27 | 33.39909 | -8.21286 | 40083 ft | 501 kts | 26° |
| 2026-05-05 09:27 | 33.45799 | -8.16828 | 40091 ft | 499 kts | 26° |
| 2026-05-05 09:28 | 33.51665 | -8.12391 | 40088 ft | 498 kts | 26° |
| 2026-05-05 09:28 | 33.57520 | -8.07949 | 40093 ft | 498 kts | 26° |
| 2026-05-05 09:29 | 33.63375 | -8.03503 | 40086 ft | 498 kts | 26° |
| 2026-05-05 09:29 | 33.69227 | -7.99049 | 40090 ft | 498 kts | 26° |
| 2026-05-05 09:30 | 33.75078 | -7.94592 | 40092 ft | 497 kts | 27° |
| 2026-05-05 09:30 | 33.80917 | -7.90135 | 40092 ft | 497 kts | 27° |
| 2026-05-05 09:31 | 33.86706 | -7.85709 | 40093 ft | 496 kts | 27° |
| 2026-05-05 09:31 | 33.92541 | -7.81241 | 40092 ft | 496 kts | 27° |
| 2026-05-05 09:32 | 33.98369 | -7.76771 | 40101 ft | 497 kts | 27° |
| 2026-05-05 09:32 | 34.04193 | -7.72295 | 40098 ft | 496 kts | 27° |
| 2026-05-05 09:33 | 34.10015 | -7.67815 | 40101 ft | 495 kts | 27° |
| 2026-05-05 09:33 | 34.15824 | -7.63338 | 40100 ft | 495 kts | 27° |
| 2026-05-05 09:34 | 34.21630 | -7.58855 | 40090 ft | 495 kts | 27° |
| 2026-05-05 09:34 | 34.27435 | -7.54365 | 40097 ft | 495 kts | 27° |
| 2026-05-05 09:35 | 34.33196 | -7.49901 | 40100 ft | 495 kts | 27° |
| 2026-05-05 09:35 | 34.41884 | -7.43152 | 40095 ft | 495 kts | 28° |
| 2026-05-05 09:36 | 34.44562 | -7.40487 | 40085 ft | 503 kts | 42° |
| 2026-05-05 09:36 | 34.46909 | -7.37334 | 40084 ft | 505 kts | 46° |
| 2026-05-05 09:36 | 34.51333 | -7.30694 | 40092 ft | 505 kts | 46° |
| 2026-05-05 09:37 | 34.55958 | -7.24302 | 40102 ft | 503 kts | 46° |
| 2026-05-05 09:37 | 34.60424 | -7.17805 | 40099 ft | 503 kts | 46° |
| 2026-05-05 09:38 | 34.64979 | -7.11346 | 40098 ft | 503 kts | 46° |
| 2026-05-05 09:38 | 34.69491 | -7.04845 | 40097 ft | 503 kts | 46° |
| 2026-05-05 09:39 | 34.71815 | -7.01498 | 40097 ft | 503 kts | 46° |
| 2026-05-05 09:40 | 34.73815 | -6.98630 | 40094 ft | 503 kts | 46° |
| 2026-05-05 09:40 | 34.76943 | -6.94117 | 40096 ft | 503 kts | 46° |
| 2026-05-05 09:41 | 34.81468 | -6.87627 | 40095 ft | 503 kts | 46° |
| 2026-05-05 09:41 | 34.85967 | -6.81116 | 40083 ft | 502 kts | 46° |
| 2026-05-05 09:42 | 34.90464 | -6.74618 | 40077 ft | 501 kts | 46° |
| 2026-05-05 09:42 | 34.94953 | -6.68109 | 40073 ft | 501 kts | 46° |
| 2026-05-05 09:43 | 34.99410 | -6.61637 | 40072 ft | 501 kts | 46° |
| 2026-05-05 09:43 | 35.03891 | -6.55119 | 40072 ft | 501 kts | 46° |
| 2026-05-05 09:44 | 35.08375 | -6.48583 | 40078 ft | 502 kts | 47° |
| 2026-05-05 09:44 | 35.12850 | -6.42048 | 40066 ft | 501 kts | 47° |
| 2026-05-05 09:45 | 35.16005 | -6.37434 | 40066 ft | 501 kts | 47° |
| 2026-05-05 09:46 | 35.17459 | -6.35301 | 40063 ft | 501 kts | 47° |
| 2026-05-05 09:46 | 35.21926 | -6.28752 | 40063 ft | 501 kts | 47° |
| 2026-05-05 09:47 | 35.26361 | -6.22248 | 40054 ft | 501 kts | 47° |
| 2026-05-05 09:47 | 35.30818 | -6.15684 | 40054 ft | 501 kts | 47° |
| 2026-05-05 09:48 | 35.35278 | -6.09113 | 40074 ft | 501 kts | 47° |
| 2026-05-05 09:48 | 35.39731 | -6.02533 | 40060 ft | 501 kts | 47° |
| 2026-05-05 09:49 | 35.44182 | -5.95948 | 40055 ft | 501 kts | 47° |
| 2026-05-05 09:49 | 35.48634 | -5.89346 | 40056 ft | 501 kts | 47° |
| 2026-05-05 09:50 | 35.53050 | -5.82777 | 40049 ft | 501 kts | 47° |
| 2026-05-05 09:50 | 35.57492 | -5.76171 | 40046 ft | 502 kts | 47° |
| 2026-05-05 09:51 | 35.61931 | -5.69551 | 40041 ft | 502 kts | 47° |
| 2026-05-05 09:51 | 35.66374 | -5.62912 | 40045 ft | 502 kts | 47° |
| 2026-05-05 09:52 | 35.70808 | -5.56274 | 40030 ft | 502 kts | 47° |
| 2026-05-05 09:52 | 35.75235 | -5.49636 | 40036 ft | 504 kts | 47° |
| 2026-05-05 09:53 | 35.79703 | -5.42921 | 40020 ft | 506 kts | 48° |
| 2026-05-05 09:53 | 35.84148 | -5.36228 | 40027 ft | 503 kts | 48° |
| 2026-05-05 09:54 | 35.88549 | -5.29589 | 40046 ft | 502 kts | 48° |
| 2026-05-05 09:54 | 35.92967 | -5.22910 | 40045 ft | 502 kts | 48° |
| 2026-05-05 09:55 | 35.97375 | -5.16234 | 40040 ft | 501 kts | 48° |
| 2026-05-05 09:55 | 36.01779 | -5.09550 | 40036 ft | 501 kts | 48° |
| 2026-05-05 09:56 | 36.06183 | -5.02854 | 40030 ft | 501 kts | 48° |
| 2026-05-05 09:56 | 36.10581 | -4.96151 | 40027 ft | 501 kts | 48° |
| 2026-05-05 09:57 | 36.14954 | -4.89500 | 40038 ft | 501 kts | 46° |
| 2026-05-05 09:57 | 36.19759 | -4.83283 | 40031 ft | 500 kts | 43° |
| 2026-05-05 09:58 | 36.24571 | -4.77056 | 40031 ft | 500 kts | 43° |
| 2026-05-05 09:58 | 36.28926 | -4.70317 | 40017 ft | 504 kts | 55° |
| 2026-05-05 09:59 | 36.32534 | -4.62835 | 40020 ft | 505 kts | 56° |
| 2026-05-05 09:59 | 36.36356 | -4.55535 | 40012 ft | 505 kts | 55° |
| 2026-05-05 10:00 | 36.40048 | -4.48126 | 40009 ft | 505 kts | 56° |
| 2026-05-05 10:00 | 36.43811 | -4.40743 | 40018 ft | 506 kts | 56° |
| 2026-05-05 10:01 | 36.47540 | -4.33326 | 40011 ft | 506 kts | 56° |
| 2026-05-05 10:01 | 36.51275 | -4.25914 | 40008 ft | 506 kts | 56° |
| 2026-05-05 10:02 | 36.55007 | -4.18494 | 40008 ft | 506 kts | 56° |
| 2026-05-05 10:02 | 36.58742 | -4.11076 | 39998 ft | 506 kts | 56° |
| 2026-05-05 10:03 | 36.62436 | -4.03620 | 40001 ft | 506 kts | 56° |
| 2026-05-05 10:03 | 36.66143 | -3.96241 | 39998 ft | 506 kts | 56° |
| 2026-05-05 10:04 | 36.69846 | -3.88769 | 39998 ft | 507 kts | 56° |
| 2026-05-05 10:04 | 36.73570 | -3.81298 | 39993 ft | 507 kts | 56° |
| 2026-05-05 10:05 | 36.77269 | -3.73803 | 39990 ft | 507 kts | 56° |
| 2026-05-05 10:05 | 36.80989 | -3.66315 | 40004 ft | 507 kts | 56° |
| 2026-05-05 10:06 | 36.84660 | -3.58847 | 40006 ft | 508 kts | 57° |
| 2026-05-05 10:06 | 36.88356 | -3.51339 | 40011 ft | 507 kts | 56° |
| 2026-05-05 10:07 | 36.92064 | -3.43828 | 40011 ft | 507 kts | 57° |
| 2026-05-05 10:07 | 36.95741 | -3.36289 | 40021 ft | 508 kts | 57° |
| 2026-05-05 10:08 | 36.99442 | -3.28750 | 40014 ft | 508 kts | 57° |
| 2026-05-05 10:08 | 37.03114 | -3.21195 | 40008 ft | 508 kts | 57° |
| 2026-05-05 10:09 | 37.06803 | -3.13637 | 40004 ft | 508 kts | 57° |
| 2026-05-05 10:09 | 37.10479 | -3.06062 | 40010 ft | 509 kts | 57° |
| 2026-05-05 10:10 | 37.14157 | -2.98486 | 40000 ft | 509 kts | 57° |
| 2026-05-05 10:10 | 37.17811 | -2.90882 | 40000 ft | 509 kts | 57° |
| 2026-05-05 10:11 | 37.21496 | -2.83299 | 40005 ft | 510 kts | 57° |
| 2026-05-05 10:11 | 37.25156 | -2.75671 | 40001 ft | 510 kts | 57° |
| 2026-05-05 10:12 | 37.28817 | -2.68033 | 40001 ft | 510 kts | 57° |
| 2026-05-05 10:12 | 37.32491 | -2.60398 | 39992 ft | 511 kts | 57° |
| 2026-05-05 10:13 | 37.36116 | -2.52779 | 39989 ft | 511 kts | 57° |
| 2026-05-05 10:13 | 37.39778 | -2.45131 | 39989 ft | 511 kts | 57° |
| 2026-05-05 10:14 | 37.43417 | -2.37455 | 39989 ft | 511 kts | 58° |
| 2026-05-05 10:14 | 37.47073 | -2.29775 | 39998 ft | 512 kts | 57° |
| 2026-05-05 10:15 | 37.50712 | -2.22063 | 39976 ft | 512 kts | 57° |
| 2026-05-05 10:15 | 37.54364 | -2.14365 | 39983 ft | 511 kts | 58° |
| 2026-05-05 10:16 | 37.57984 | -2.06649 | 39974 ft | 511 kts | 58° |
| 2026-05-05 10:16 | 37.61624 | -1.98942 | 39974 ft | 511 kts | 58° |
| 2026-05-05 10:17 | 37.65239 | -1.91216 | 39963 ft | 511 kts | 58° |
| 2026-05-05 10:17 | 37.68859 | -1.83496 | 39962 ft | 511 kts | 58° |
| 2026-05-05 10:18 | 37.72445 | -1.75797 | 39975 ft | 512 kts | 58° |
| 2026-05-05 10:18 | 37.76069 | -1.68038 | 39974 ft | 513 kts | 58° |
| 2026-05-05 10:19 | 37.79665 | -1.60250 | 39966 ft | 513 kts | 59° |
| 2026-05-05 10:19 | 37.83292 | -1.52469 | 39950 ft | 513 kts | 58° |
| 2026-05-05 10:20 | 37.86885 | -1.44665 | 39958 ft | 513 kts | 59° |
| 2026-05-05 10:20 | 37.90495 | -1.36855 | 39959 ft | 513 kts | 59° |
| 2026-05-05 10:21 | 37.94091 | -1.29034 | 39964 ft | 513 kts | 59° |
| 2026-05-05 10:21 | 37.97687 | -1.21212 | 39960 ft | 514 kts | 59° |
| 2026-05-05 10:22 | 38.01275 | -1.13370 | 39957 ft | 514 kts | 59° |
| 2026-05-05 10:22 | 38.04870 | -1.05507 | 39955 ft | 515 kts | 59° |
| 2026-05-05 10:23 | 38.08434 | -0.97623 | 39950 ft | 515 kts | 59° |
| 2026-05-05 10:23 | 38.12048 | -0.89771 | 39963 ft | 515 kts | 59° |
| 2026-05-05 10:24 | 38.15580 | -0.81921 | 39961 ft | 515 kts | 59° |
| 2026-05-05 10:24 | 38.19164 | -0.74021 | 39982 ft | 515 kts | 59° |
| 2026-05-05 10:25 | 38.22741 | -0.66095 | 39970 ft | 516 kts | 59° |
| 2026-05-05 10:25 | 38.26311 | -0.58160 | 39970 ft | 517 kts | 60° |
| 2026-05-05 10:26 | 38.28687 | -0.51188 | 39964 ft | 517 kts | 68° |
| 2026-05-05 10:26 | 38.31413 | -0.42713 | 39965 ft | 517 kts | 68° |
| 2026-05-05 10:27 | 38.34116 | -0.34225 | 39964 ft | 517 kts | 68° |
| 2026-05-05 10:27 | 38.36855 | -0.25752 | 39961 ft | 517 kts | 66° |
| 2026-05-05 10:28 | 38.39663 | -0.17317 | 39956 ft | 517 kts | 68° |
| 2026-05-05 10:28 | 38.42444 | -0.08871 | 39955 ft | 517 kts | 67° |
| 2026-05-05 10:29 | 38.45272 | -0.00440 | 39956 ft | 517 kts | 67° |
| 2026-05-05 10:29 | 38.47974 | 0.08070 | 39951 ft | 517 kts | 68° |
| 2026-05-05 10:30 | 38.50698 | 0.16508 | 39952 ft | 517 kts | 68° |
| 2026-05-05 10:30 | 38.53402 | 0.25013 | 39953 ft | 517 kts | 68° |
| 2026-05-05 10:31 | 38.56140 | 0.33529 | 39955 ft | 517 kts | 68° |
| 2026-05-05 10:31 | 38.58837 | 0.42051 | 39597 ft | 510 kts | 68° |
| 2026-05-05 10:32 | 38.60168 | 0.46222 | 39201 ft | 504 kts | 68° |
| 2026-05-05 10:32 | 38.61473 | 0.50297 | 38774 ft | 500 kts | 68° |
| 2026-05-05 10:32 | 38.62764 | 0.54415 | 38179 ft | 499 kts | 69° |
| 2026-05-05 10:32 | 38.64048 | 0.58522 | 37503 ft | 499 kts | 69° |
| 2026-05-05 10:33 | 38.65361 | 0.62648 | 36834 ft | 498 kts | 69° |
| 2026-05-05 10:33 | 38.66520 | 0.66816 | 36146 ft | 497 kts | 77° |
| 2026-05-05 10:33 | 38.67165 | 0.71140 | 35460 ft | 493 kts | 87° |
| 2026-05-05 10:33 | 38.67487 | 0.75494 | 34790 ft | 491 kts | 89° |
| 2026-05-05 10:34 | 38.67803 | 0.79854 | 34069 ft | 491 kts | 88° |
| 2026-05-05 10:34 | 38.68126 | 0.84223 | 33181 ft | 493 kts | 88° |
| 2026-05-05 10:34 | 38.68439 | 0.88581 | 32299 ft | 490 kts | 88° |
| 2026-05-05 10:34 | 38.68763 | 0.92919 | 31440 ft | 487 kts | 88° |
| 2026-05-05 10:35 | 38.69089 | 0.97223 | 30604 ft | 484 kts | 88° |
| 2026-05-05 10:35 | 38.69398 | 1.01506 | 29740 ft | 482 kts | 88° |
| 2026-05-05 10:35 | 38.69700 | 1.05764 | 28788 ft | 479 kts | 88° |
| 2026-05-05 10:35 | 38.70003 | 1.10002 | 27868 ft | 476 kts | 88° |
| 2026-05-05 10:36 | 38.70305 | 1.14214 | 26931 ft | 472 kts | 88° |
| 2026-05-05 10:36 | 38.70765 | 1.18352 | 26011 ft | 469 kts | 79° |
| 2026-05-05 10:36 | 38.71738 | 1.22326 | 25128 ft | 466 kts | 69° |
| 2026-05-05 10:36 | 38.73152 | 1.26041 | 24276 ft | 462 kts | 62° |
| 2026-05-05 10:37 | 38.74662 | 1.29648 | 23429 ft | 457 kts | 62° |
| 2026-05-05 10:37 | 38.76124 | 1.33158 | 22455 ft | 448 kts | 62° |
| 2026-05-05 10:37 | 38.77568 | 1.36652 | 21500 ft | 440 kts | 62° |
| 2026-05-05 10:37 | 38.78988 | 1.40094 | 20571 ft | 432 kts | 62° |
| 2026-05-05 10:38 | 38.80386 | 1.43472 | 19674 ft | 425 kts | 61° |
| 2026-05-05 10:38 | 38.81764 | 1.46798 | 18801 ft | 419 kts | 61° |
| 2026-05-05 10:38 | 38.83121 | 1.50066 | 17896 ft | 412 kts | 61° |
| 2026-05-05 10:38 | 38.84443 | 1.53257 | 16956 ft | 398 kts | 61° |
| 2026-05-05 10:39 | 38.85716 | 1.56342 | 16164 ft | 384 kts | 61° |
| 2026-05-05 10:39 | 38.86940 | 1.59309 | 15427 ft | 370 kts | 61° |
| 2026-05-05 10:39 | 38.88126 | 1.62187 | 14701 ft | 359 kts | 62° |
| 2026-05-05 10:39 | 38.89280 | 1.64991 | 13969 ft | 351 kts | 62° |
| 2026-05-05 10:40 | 38.90408 | 1.67735 | 13178 ft | 344 kts | 62° |
| 2026-05-05 10:40 | 38.91514 | 1.70428 | 12373 ft | 337 kts | 62° |
| 2026-05-05 10:40 | 38.92596 | 1.73065 | 11580 ft | 331 kts | 62° |
| 2026-05-05 10:40 | 38.93661 | 1.75661 | 10806 ft | 325 kts | 62° |
| 2026-05-05 10:41 | 38.94694 | 1.78182 | 10057 ft | 320 kts | 62° |
| 2026-05-05 10:41 | 38.95723 | 1.80695 | 9243 ft | 315 kts | 62° |
| 2026-05-05 10:41 | 38.96776 | 1.83134 | 8426 ft | 309 kts | 55° |
| 2026-05-05 10:41 | 38.98309 | 1.85008 | 7640 ft | 303 kts | 29° |
| 2026-05-05 10:42 | 39.02252 | 1.85558 | 6082 ft | 285 kts | 337° |
| 2026-05-05 10:42 | 39.03879 | 1.84209 | 5293 ft | 277 kts | 311° |
| 2026-05-05 10:42 | 39.04826 | 1.82122 | 4503 ft | 270 kts | 284° |
| 2026-05-05 10:43 | 39.04880 | 1.79783 | 3974 ft | 255 kts | 254° |
| 2026-05-05 10:43 | 39.04128 | 1.77880 | 3997 ft | 226 kts | 237° |
| 2026-05-05 10:43 | 39.03333 | 1.76242 | 3992 ft | 208 kts | 240° |
| 2026-05-05 10:43 | 39.02665 | 1.74655 | 3987 ft | 195 kts | 242° |
| 2026-05-05 10:44 | 39.02057 | 1.73155 | 3989 ft | 184 kts | 242° |
| 2026-05-05 10:44 | 39.01474 | 1.71743 | 3987 ft | 174 kts | 242° |
| 2026-05-05 10:44 | 39.00921 | 1.70405 | 3989 ft | 165 kts | 242° |
| 2026-05-05 10:44 | 39.00406 | 1.69157 | 3986 ft | 151 kts | 242° |
| 2026-05-05 10:45 | 38.99935 | 1.67988 | 3975 ft | 145 kts | 243° |
| 2026-05-05 10:45 | 38.99460 | 1.66852 | 3979 ft | 148 kts | 242° |
| 2026-05-05 10:45 | 38.98965 | 1.65647 | 3987 ft | 153 kts | 242° |
| 2026-05-05 10:45 | 38.98465 | 1.64423 | 3986 ft | 158 kts | 242° |
| 2026-05-05 10:46 | 38.97934 | 1.63135 | 3991 ft | 167 kts | 242° |
| 2026-05-05 10:46 | 38.97381 | 1.61795 | 3943 ft | 179 kts | 242° |
| 2026-05-05 10:46 | 38.96779 | 1.60343 | 3720 ft | 189 kts | 242° |
| 2026-05-05 10:46 | 38.96157 | 1.58820 | 3464 ft | 195 kts | 243° |
| 2026-05-05 10:47 | 38.95527 | 1.57287 | 3209 ft | 193 kts | 243° |
| 2026-05-05 10:47 | 38.94899 | 1.55769 | 2951 ft | 191 kts | 243° |
| 2026-05-05 10:47 | 38.94281 | 1.54273 | 2695 ft | 188 kts | 243° |
| 2026-05-05 10:47 | 38.93671 | 1.52798 | 2450 ft | 186 kts | 243° |
| 2026-05-05 10:48 | 38.93071 | 1.51335 | 2190 ft | 184 kts | 243° |
| 2026-05-05 10:48 | 38.92470 | 1.49883 | 1946 ft | 184 kts | 244° |
| 2026-05-05 10:48 | 38.91877 | 1.48434 | 1704 ft | 183 kts | 243° |
| 2026-05-05 10:48 | 38.91292 | 1.47016 | 1454 ft | 180 kts | 243° |
| 2026-05-05 10:49 | 38.90716 | 1.45628 | 1220 ft | 170 kts | 244° |
| 2026-05-05 10:49 | 38.90179 | 1.44318 | 997 ft | 162 kts | 244° |
| 2026-05-05 10:49 | 38.89667 | 1.43077 | 797 ft | 152 kts | 243° |
| 2026-05-05 10:49 | 38.89185 | 1.41907 | 598 ft | 144 kts | 240° |
| 2026-05-05 10:50 | 38.88735 | 1.40820 | 417 ft | 136 kts | 241° |
| 2026-05-05 10:50 | 38.88306 | 1.39782 | 242 ft | 126 kts | 240° |
| 2026-05-05 10:50 | 38.87912 | 1.38822 | 64 ft | 120 kts | 244° |
| 2026-05-05 10:50 | 38.87534 | 1.37927 | 6 ft | 101 kts | 240° |
| 2026-05-05 10:51 | 38.87327 | 1.37436 | 4 ft | 13 kts | 242° |
| 2026-05-05 10:51 | 38.87284 | 1.37311 | 5 ft | 19 kts | 249° |
| 2026-05-05 10:51 | 38.87256 | 1.37111 | 5 ft | 27 kts | 272° |
| 2026-05-05 10:51 | 38.87266 | 1.36940 | 3 ft | 14 kts | 298° |
| 2026-05-05 10:52 | 38.87347 | 1.37013 | 3 ft | 23 kts | 62° |
| 2026-05-05 10:52 | 38.87435 | 1.37227 | 3 ft | 32 kts | 62° |
| 2026-05-05 10:52 | 38.87543 | 1.37481 | 3 ft | 24 kts | 62° |
| 2026-05-05 10:52 | 38.87638 | 1.37517 | 3 ft | 16 kts | 332° |
| 2026-05-05 10:53 | 38.87714 | 1.37519 | 3 ft | 13 kts | 65° |
| 2026-05-05 10:53 | 38.87718 | 1.37582 | 3 ft | 6 kts | 153° |
| 2026-05-05 10:53 | 38.87711 | 1.37587 | 3 ft | 0 kts | 149° |